Terminal Aerodrome Forecast
Issued by NWS

Home | Current Version | Previous Version | Text Only | Print | Product List | Glossary Off
Versions: 1 2 3 4 5 6 7 8 9 10 11 12 13

000
FTUS45 KGGW 200539
TAFGDV
TAF
KGDV 200539Z 2006/2106 24006KT P6SM BKN070 BKN110
     FM201000 24007KT P6SM FEW045 SCT120=

USA.gov is the U.S. government's official web portal to all federal, state and local government web resources and services.